createdAt,value
2023-05-12T00:00:02.674Z,1025.00
2023-05-12T00:01:02.703Z,1020.00
2023-05-12T00:02:02.765Z,1027.00
2023-05-12T00:03:02.856Z,1025.00
2023-05-12T00:04:03.077Z,1019.00
2023-05-12T00:05:03.054Z,1013.00
2023-05-12T00:06:03.021Z,1017.00
2023-05-12T00:07:03.069Z,1004.00
2023-05-12T00:08:03.164Z,1010.00
2023-05-12T00:09:03.187Z,1002.00
2023-05-12T00:10:03.254Z,999.00
2023-05-12T00:11:03.307Z,1011.00
2023-05-12T00:12:03.356Z,1015.00
2023-05-12T00:13:03.438Z,1010.00
2023-05-12T00:14:03.467Z,1004.00
2023-05-12T00:15:03.517Z,1012.00
2023-05-12T00:16:03.650Z,992.00
2023-05-12T00:17:03.653Z,991.00
2023-05-12T00:18:03.781Z,1015.00
2023-05-12T00:19:03.875Z,1002.00
2023-05-12T00:20:03.816Z,1004.00
2023-05-12T00:21:03.892Z,1002.00
2023-05-12T00:22:03.939Z,1005.00
2023-05-12T00:23:04.004Z,1000.00
2023-05-12T00:24:04.040Z,987.00
2023-05-12T00:25:04.097Z,995.00
2023-05-12T00:26:04.278Z,1006.00
2023-05-12T00:27:04.208Z,993.00
2023-05-12T00:28:04.316Z,1000.00
2023-05-12T00:29:04.345Z,1005.00
2023-05-12T00:30:04.403Z,997.00
2023-05-12T00:31:04.482Z,992.00
2023-05-12T00:32:04.624Z,988.00
2023-05-12T00:33:04.630Z,1000.00
2023-05-12T00:34:04.635Z,1001.00
2023-05-12T00:35:04.697Z,987.00
2023-05-12T00:36:04.790Z,982.00
2023-05-12T00:37:04.852Z,999.00
2023-05-12T00:38:04.864Z,995.00
2023-05-12T00:39:04.931Z,996.00
2023-05-12T00:40:05.006Z,991.00
2023-05-12T00:41:05.077Z,995.00
2023-05-12T00:42:05.122Z,998.00
2023-05-12T00:43:05.149Z,985.00
2023-05-12T00:44:05.258Z,988.00
2023-05-12T00:45:05.276Z,980.00
2023-05-12T00:46:05.418Z,994.00
2023-05-12T00:47:05.378Z,992.00
2023-05-12T00:48:05.477Z,987.00
2023-05-12T00:49:05.498Z,992.00
2023-05-12T00:50:05.534Z,989.00
2023-05-12T00:51:05.612Z,995.00
2023-05-12T00:52:05.649Z,987.00
2023-05-12T00:53:05.705Z,989.00
2023-05-12T00:54:05.777Z,988.00
2023-05-12T00:55:05.823Z,997.00
2023-05-12T00:56:05.850Z,996.00
2023-05-12T00:57:05.903Z,988.00
2023-05-12T00:58:05.960Z,996.00
2023-05-12T00:59:06.052Z,998.00
2023-05-12T01:00:06.058Z,989.00
2023-05-12T01:01:06.144Z,995.00
2023-05-12T01:02:06.221Z,1000.00
2023-05-12T01:03:06.356Z,996.00
2023-05-12T01:04:06.288Z,989.00
2023-05-12T01:05:06.363Z,974.00
2023-05-12T01:06:06.411Z,988.00
2023-05-12T01:07:06.450Z,1002.00
2023-05-12T01:08:06.546Z,1000.00
2023-05-12T01:09:06.556Z,989.00
2023-05-12T01:10:06.618Z,983.00
2023-05-12T01:11:06.686Z,986.00
2023-05-12T01:12:06.709Z,986.00
2023-05-12T01:13:06.775Z,979.00
2023-05-12T01:14:06.822Z,985.00
2023-05-12T01:15:06.886Z,979.00
2023-05-12T01:16:06.969Z,991.00
2023-05-12T01:17:07.060Z,984.00
2023-05-12T01:18:07.100Z,986.00
2023-05-12T01:19:07.160Z,976.00
2023-05-12T01:20:07.154Z,994.00
2023-05-12T01:21:07.212Z,987.00
2023-05-12T01:22:07.257Z,984.00
2023-05-12T01:23:07.330Z,971.00
2023-05-12T01:24:07.376Z,975.00
2023-05-12T01:25:07.409Z,972.00
2023-05-12T01:26:07.466Z,971.00
2023-05-12T01:27:07.532Z,965.00
2023-05-12T01:28:07.568Z,978.00
2023-05-12T01:29:07.642Z,982.00
2023-05-12T01:30:07.672Z,966.00
2023-05-12T01:31:07.795Z,970.00
2023-05-12T01:32:07.788Z,977.00
2023-05-12T01:33:07.848Z,968.00
2023-05-12T01:34:07.902Z,967.00
2023-05-12T01:35:07.993Z,971.00
2023-05-12T01:36:08.004Z,958.00
2023-05-12T01:37:08.070Z,965.00
2023-05-12T01:38:08.118Z,966.00
2023-05-12T01:39:08.170Z,967.00
2023-05-12T01:40:08.226Z,961.00
2023-05-12T01:41:08.290Z,961.00
2023-05-12T01:42:08.320Z,968.00
2023-05-12T01:43:08.392Z,961.00
2023-05-12T01:44:08.443Z,964.00
2023-05-12T01:45:08.490Z,964.00
2023-05-12T01:46:08.616Z,971.00
2023-05-12T01:47:08.607Z,977.00
2023-05-12T01:48:08.660Z,966.00
2023-05-12T01:49:08.703Z,976.00
2023-05-12T01:50:08.800Z,965.00
2023-05-12T01:51:08.875Z,959.00
2023-05-12T01:52:08.909Z,957.00
2023-05-12T01:53:08.931Z,962.00
2023-05-12T01:54:08.983Z,989.00
2023-05-12T01:55:09.034Z,975.00
2023-05-12T01:56:09.093Z,968.00
2023-05-12T01:57:09.162Z,969.00
2023-05-12T01:58:09.196Z,968.00
2023-05-12T01:59:09.308Z,975.00
2023-05-12T02:00:09.339Z,967.00
2023-05-12T02:01:09.349Z,970.00
2023-05-12T02:02:09.464Z,971.00
2023-05-12T02:03:09.577Z,970.00
2023-05-12T02:04:09.643Z,971.00
2023-05-12T02:05:09.580Z,970.00
2023-05-12T02:06:09.625Z,969.00
2023-05-12T02:07:09.669Z,970.00
2023-05-12T02:08:09.725Z,967.00
2023-05-12T02:09:09.806Z,970.00
2023-05-12T02:10:09.846Z,968.00
2023-05-12T02:11:09.915Z,984.00
2023-05-12T02:12:09.953Z,957.00
2023-05-12T02:13:10.032Z,961.00
2023-05-12T02:14:10.092Z,954.00
2023-05-12T02:15:10.144Z,960.00
2023-05-12T02:16:10.266Z,946.00
2023-05-12T02:17:10.260Z,949.00
2023-05-12T02:18:10.465Z,953.00
2023-05-12T02:19:10.491Z,952.00
2023-05-12T02:20:10.437Z,948.00
2023-05-12T02:21:10.485Z,946.00
2023-05-12T02:22:10.548Z,951.00
2023-05-12T02:23:10.595Z,946.00
2023-05-12T02:24:11.595Z,939.00
2023-05-12T02:25:10.711Z,931.00
2023-05-12T02:26:10.759Z,936.00
2023-05-12T02:27:10.915Z,930.00
2023-05-12T02:28:10.897Z,913.00
2023-05-12T02:29:10.941Z,927.00
2023-05-12T02:30:11.013Z,920.00
2023-05-12T02:31:11.056Z,917.00
2023-05-12T02:32:11.429Z,921.00
2023-05-12T02:33:11.210Z,917.00
2023-05-12T02:34:11.236Z,918.00
2023-05-12T02:35:11.295Z,910.00
2023-05-12T02:36:11.372Z,921.00
2023-05-12T02:37:11.409Z,906.00
2023-05-12T02:38:11.476Z,900.00
2023-05-12T02:39:11.590Z,890.00
2023-05-12T02:40:11.588Z,888.00
2023-05-12T02:41:11.641Z,884.00
2023-05-12T02:42:11.723Z,883.00
2023-05-12T02:43:11.776Z,877.00
2023-05-12T02:44:11.836Z,873.00
2023-05-12T02:45:11.913Z,870.00
2023-05-12T02:46:12.014Z,869.00
2023-05-12T02:47:12.013Z,860.00
2023-05-12T02:48:12.089Z,855.00
2023-05-12T02:49:12.130Z,855.00
2023-05-12T02:50:12.214Z,844.00
2023-05-12T02:51:12.263Z,849.00
2023-05-12T02:52:12.310Z,853.00
2023-05-12T02:53:12.369Z,850.00
2023-05-12T02:54:12.452Z,851.00
2023-05-12T02:55:12.474Z,835.00
2023-05-12T02:56:13.311Z,850.00
2023-05-12T02:57:12.606Z,846.00
2023-05-12T02:58:12.680Z,842.00
2023-05-12T02:59:12.757Z,826.00
2023-05-12T03:00:12.804Z,837.00
2023-05-12T03:01:12.896Z,813.00
2023-05-12T03:02:13.007Z,820.00
2023-05-12T03:03:13.043Z,826.00
2023-05-12T03:04:13.061Z,818.00
2023-05-12T03:05:13.116Z,828.00
2023-05-12T03:06:13.166Z,833.00
2023-05-12T03:07:13.221Z,818.00
2023-05-12T03:08:13.272Z,821.00
2023-05-12T03:09:13.356Z,824.00
2023-05-12T03:10:13.396Z,824.00
2023-05-12T03:11:13.471Z,809.00
2023-05-12T03:12:13.542Z,804.00
2023-05-12T03:13:13.592Z,809.00
2023-05-12T03:14:13.634Z,797.00
2023-05-12T03:15:13.698Z,814.00
2023-05-12T03:16:13.787Z,803.00
2023-05-12T03:17:13.924Z,803.00
2023-05-12T03:18:13.886Z,808.00
2023-05-12T03:19:13.959Z,799.00
2023-05-12T03:20:14.040Z,800.00
2023-05-12T03:21:14.097Z,798.00
2023-05-12T03:22:14.147Z,800.00
2023-05-12T03:23:14.198Z,794.00
2023-05-12T03:24:14.249Z,802.00
2023-05-12T03:25:14.307Z,800.00
2023-05-12T03:26:14.361Z,796.00
2023-05-12T03:27:14.438Z,788.00
2023-05-12T03:28:14.481Z,783.00
2023-05-12T03:29:14.534Z,765.00
2023-05-12T03:30:14.603Z,770.00
2023-05-12T03:31:14.676Z,777.00
2023-05-12T03:32:14.756Z,770.00
2023-05-12T03:33:14.849Z,776.00
2023-05-12T03:34:14.891Z,767.00
2023-05-12T03:35:14.936Z,769.00
2023-05-12T03:36:14.979Z,784.00
2023-05-12T03:37:15.052Z,788.00
2023-05-12T03:38:15.125Z,780.00
2023-05-12T03:39:15.172Z,780.00
2023-05-12T03:40:15.215Z,763.00
2023-05-12T03:41:15.289Z,779.00
2023-05-12T03:42:15.358Z,775.00
2023-05-12T03:43:15.445Z,776.00
2023-05-12T03:44:15.519Z,784.00
2023-05-12T03:45:15.553Z,766.00
2023-05-12T03:46:15.697Z,774.00
2023-05-12T03:47:15.764Z,779.00
2023-05-12T03:48:15.741Z,773.00
2023-05-12T03:49:15.777Z,788.00
2023-05-12T03:50:15.860Z,787.00
2023-05-12T03:51:15.912Z,791.00
2023-05-12T03:52:15.991Z,779.00
2023-05-12T03:53:16.022Z,776.00
2023-05-12T03:54:16.077Z,769.00
2023-05-12T03:55:16.132Z,753.00
2023-05-12T03:56:16.193Z,755.00
2023-05-12T03:57:16.250Z,754.00
2023-05-12T03:58:16.316Z,772.00
2023-05-12T03:59:16.365Z,762.00
2023-05-12T04:00:16.522Z,763.00
2023-05-12T04:01:16.476Z,761.00
2023-05-12T04:02:16.567Z,766.00
2023-05-12T04:03:16.655Z,740.00
2023-05-12T04:04:16.704Z,747.00
2023-05-12T04:05:16.712Z,757.00
2023-05-12T04:06:16.772Z,748.00
2023-05-12T04:07:16.850Z,737.00
2023-05-12T04:08:16.901Z,755.00
2023-05-12T04:09:16.940Z,751.00
2023-05-12T04:10:17.086Z,757.00
2023-05-12T04:11:17.057Z,756.00
2023-05-12T04:12:17.154Z,758.00
2023-05-12T04:13:17.255Z,764.00
2023-05-12T04:14:17.271Z,751.00
2023-05-12T04:15:17.321Z,739.00
2023-05-12T04:16:17.442Z,757.00
2023-05-12T04:17:17.568Z,757.00
2023-05-12T04:18:17.472Z,776.00
2023-05-12T04:19:17.560Z,783.00
2023-05-12T04:20:17.745Z,769.00
2023-05-12T04:21:17.663Z,771.00
2023-05-12T04:22:17.752Z,759.00
2023-05-12T04:23:17.792Z,749.00
2023-05-12T04:24:17.852Z,759.00
2023-05-12T04:25:17.928Z,770.00
2023-05-12T04:26:17.986Z,779.00
2023-05-12T04:27:18.060Z,767.00
2023-05-12T04:28:18.086Z,762.00
2023-05-12T04:29:18.167Z,765.00
2023-05-12T04:30:18.331Z,787.00
2023-05-12T04:31:18.361Z,790.00
2023-05-12T04:32:18.351Z,787.00
2023-05-12T04:33:18.418Z,767.00
2023-05-12T04:34:18.441Z,776.00
2023-05-12T04:35:18.583Z,768.00
2023-05-12T04:36:18.568Z,788.00
2023-05-12T04:37:18.626Z,784.00
2023-05-12T04:38:18.691Z,782.00
2023-05-12T04:39:18.764Z,785.00
2023-05-12T04:40:19.111Z,781.00
2023-05-12T04:41:18.882Z,786.00
2023-05-12T04:42:18.944Z,801.00
2023-05-12T04:44:19.010Z,812.00
2023-05-12T04:45:19.204Z,797.00
2023-05-12T04:46:18.980Z,802.00
2023-05-12T04:47:18.980Z,812.00
2023-05-12T04:48:18.952Z,805.00
2023-05-12T04:49:18.938Z,803.00
2023-05-12T04:50:18.952Z,808.00
2023-05-12T04:51:18.950Z,807.00
2023-05-12T04:52:18.948Z,806.00
2023-05-12T04:53:18.955Z,810.00
2023-05-12T04:54:18.905Z,809.00
2023-05-12T04:55:19.108Z,800.00
2023-05-12T04:56:18.911Z,806.00
2023-05-12T04:57:18.961Z,807.00
2023-05-12T04:58:18.885Z,799.00
2023-05-12T04:59:18.902Z,794.00
2023-05-12T05:00:18.878Z,793.00
2023-05-12T05:01:18.899Z,786.00
2023-05-12T05:02:18.901Z,788.00
2023-05-12T05:03:18.997Z,798.00
2023-05-12T05:04:18.866Z,795.00
2023-05-12T05:05:19.226Z,799.00
2023-05-12T05:06:18.838Z,797.00
2023-05-12T05:07:18.850Z,783.00
2023-05-12T05:08:18.838Z,791.00
2023-05-12T05:09:18.822Z,788.00
2023-05-12T05:10:18.824Z,794.00
2023-05-12T05:11:18.815Z,799.00
2023-05-12T05:12:18.823Z,802.00
2023-05-12T05:13:18.800Z,790.00
2023-05-12T05:14:18.780Z,795.00
2023-05-12T05:15:18.984Z,805.00
2023-05-12T05:16:18.845Z,789.00
2023-05-12T05:17:18.764Z,795.00
2023-05-12T05:18:19.454Z,798.00
2023-05-12T05:19:22.594Z,806.00
2023-05-12T05:20:19.956Z,807.00
2023-05-12T05:21:18.867Z,806.00
2023-05-12T05:22:18.854Z,806.00
2023-05-12T05:23:18.891Z,810.00
2023-05-12T05:24:18.830Z,817.00
2023-05-12T05:25:19.025Z,794.00
2023-05-12T05:26:18.834Z,808.00
2023-05-12T05:27:18.814Z,804.00
2023-05-12T05:28:18.818Z,799.00
2023-05-12T05:29:18.823Z,781.00
2023-05-12T05:30:18.880Z,730.00
2023-05-12T05:31:19.079Z,719.00
2023-05-12T05:32:19.054Z,752.00
2023-05-12T05:33:19.093Z,767.00
2023-05-12T05:34:19.182Z,759.00
2023-05-12T05:35:19.473Z,788.00
2023-05-12T05:36:19.259Z,843.00
2023-05-12T05:37:19.308Z,849.00
2023-05-12T05:38:19.271Z,853.00
2023-05-12T05:39:19.318Z,892.00
2023-05-12T05:40:19.406Z,1002.00
2023-05-12T05:41:19.417Z,1073.00
2023-05-12T05:42:19.421Z,1129.00
2023-05-12T05:43:19.433Z,1178.00
2023-05-12T05:44:19.427Z,1215.00
2023-05-12T05:45:19.670Z,1255.00
2023-05-12T05:46:19.550Z,1279.00
2023-05-12T05:47:19.898Z,1299.00
2023-05-12T05:48:19.554Z,1313.00
2023-05-12T05:49:19.659Z,1353.00
2023-05-12T05:50:19.699Z,1348.00
2023-05-12T05:51:19.750Z,1380.00
2023-05-12T05:52:19.896Z,1378.00
2023-05-12T05:53:19.852Z,1325.00
2023-05-12T05:54:19.842Z,1371.00
2023-05-12T05:55:20.067Z,1360.00
2023-05-12T05:56:19.880Z,1321.00
2023-05-12T05:57:20.001Z,1373.00
2023-05-12T05:58:20.184Z,1410.00
2023-05-12T05:59:20.066Z,1432.00
2023-05-12T06:00:20.078Z,1379.00
2023-05-12T06:01:20.048Z,1409.00
2023-05-12T06:02:20.142Z,1439.00
2023-05-12T06:03:20.249Z,1453.00
2023-05-12T06:04:20.335Z,1464.00
2023-05-12T06:05:20.449Z,1422.00
2023-05-12T06:06:20.205Z,1466.00
2023-05-12T06:07:22.086Z,1468.00
2023-05-12T06:08:20.332Z,1483.00
2023-05-12T06:09:20.360Z,1506.00
2023-05-12T06:10:20.625Z,1496.00
2023-05-12T06:11:20.466Z,1507.00
2023-05-12T06:12:20.529Z,1493.00
2023-05-12T06:13:20.660Z,1491.00
2023-05-12T06:14:20.640Z,1493.00
2023-05-12T06:15:20.942Z,1478.00
2023-05-12T06:16:20.831Z,1507.00
2023-05-12T06:17:20.883Z,1505.00
2023-05-12T06:18:20.967Z,1518.00
2023-05-12T06:19:20.955Z,1522.00
2023-05-12T06:20:21.008Z,1511.00
2023-05-12T06:21:21.069Z,1521.00
2023-05-12T06:22:21.169Z,1418.00
2023-05-12T06:23:21.252Z,1442.00
2023-05-12T06:24:21.270Z,1462.00
2023-05-12T06:25:22.118Z,1477.00
2023-05-12T06:26:21.396Z,1529.00
2023-05-12T06:27:21.841Z,1536.00
2023-05-12T06:28:22.850Z,1540.00
2023-05-12T06:29:21.532Z,1545.00
2023-05-12T06:30:21.592Z,1545.00
2023-05-12T06:31:21.733Z,1552.00
2023-05-12T06:32:21.936Z,1554.00
2023-05-12T06:33:21.880Z,1533.00
2023-05-12T06:34:21.805Z,1513.00
2023-05-12T06:35:21.968Z,1505.00
2023-05-12T06:36:21.867Z,1471.00
2023-05-12T06:37:21.937Z,1543.00
2023-05-12T06:38:22.025Z,1547.00
2023-05-12T06:39:22.288Z,1562.00
2023-05-12T06:40:22.174Z,1587.00
2023-05-12T06:41:22.072Z,1572.00
2023-05-12T06:42:22.186Z,1553.00
2023-05-12T06:43:22.174Z,1453.00
2023-05-12T06:44:22.251Z,1521.00
2023-05-12T06:45:22.326Z,1573.00
2023-05-12T06:46:22.397Z,1588.00
2023-05-12T06:47:22.316Z,1596.00
2023-05-12T06:48:22.437Z,1601.00
2023-05-12T06:49:22.319Z,1607.00
2023-05-12T06:50:22.334Z,1615.00
2023-05-12T06:51:22.353Z,1623.00
2023-05-12T06:52:22.397Z,1631.00
2023-05-12T06:53:24.108Z,1625.00
2023-05-12T06:54:22.372Z,1634.00
2023-05-12T06:55:22.747Z,1625.00
2023-05-12T06:56:22.383Z,1607.00
2023-05-12T06:57:22.366Z,1611.00
2023-05-12T06:58:22.400Z,1628.00
2023-05-12T06:59:22.310Z,1601.00
2023-05-12T07:00:22.312Z,1617.00
2023-05-12T07:01:22.358Z,1547.00
2023-05-12T07:02:22.307Z,1567.00
2023-05-12T07:03:22.295Z,1619.00
2023-05-12T07:04:22.274Z,1635.00
2023-05-12T07:05:22.845Z,1661.00
2023-05-12T07:06:22.272Z,1669.00
2023-05-12T07:07:22.237Z,1674.00
2023-05-12T07:08:22.237Z,1688.00
2023-05-12T07:09:22.264Z,1696.00
2023-05-12T07:10:22.328Z,1656.00
2023-05-12T07:11:22.219Z,1696.00
2023-05-12T07:12:22.230Z,1710.00
2023-05-12T07:13:22.233Z,1701.00
2023-05-12T07:14:22.201Z,1719.00
2023-05-12T07:15:22.412Z,1717.00
2023-05-12T07:16:22.232Z,1719.00
2023-05-12T07:17:22.253Z,1705.00
2023-05-12T07:18:22.458Z,1705.00
2023-05-12T07:19:22.242Z,1711.00
2023-05-12T07:20:22.179Z,1716.00
2023-05-12T07:21:22.213Z,1706.00
2023-05-12T07:22:22.156Z,1705.00
2023-05-12T07:23:22.153Z,1647.00
2023-05-12T07:24:22.143Z,1660.00
2023-05-12T07:25:22.498Z,1644.00
2023-05-12T07:26:22.205Z,1495.00
2023-05-12T07:27:22.927Z,1202.00
2023-05-12T07:28:22.473Z,1103.00
2023-05-12T07:29:22.129Z,1096.00
2023-05-12T07:30:22.100Z,999.00
2023-05-12T07:31:24.889Z,1131.00
2023-05-12T07:32:22.289Z,1509.00
2023-05-12T07:33:23.920Z,1990.00
2023-05-12T07:34:22.091Z,2004.00
2023-05-12T07:35:22.369Z,2047.00
2023-05-12T07:36:22.232Z,2044.00
2023-05-12T07:37:22.087Z,2171.00
2023-05-12T07:38:22.063Z,1854.00
2023-05-12T07:39:22.059Z,2075.00
2023-05-12T07:40:23.037Z,2411.00
2023-05-12T07:41:22.020Z,2515.00
2023-05-12T07:42:22.065Z,2618.00
2023-05-12T07:43:22.030Z,2645.00
2023-05-12T07:44:22.025Z,2539.00
2023-05-12T07:45:22.095Z,2432.00
2023-05-12T07:46:22.036Z,2509.00
2023-05-12T07:47:22.032Z,2551.00
2023-05-12T07:48:22.395Z,2586.00
2023-05-12T07:49:21.954Z,2553.00
2023-05-12T07:50:22.024Z,2541.00
2023-05-12T07:51:21.967Z,2498.00
2023-05-12T07:52:21.968Z,2405.00
2023-05-12T07:53:22.412Z,2431.00
2023-05-12T07:54:21.927Z,2419.00
2023-05-12T07:55:22.178Z,2436.00
2023-05-12T07:56:22.016Z,2422.00
2023-05-12T07:57:21.953Z,2399.00
2023-05-12T07:58:22.367Z,2379.00
2023-05-12T07:59:22.087Z,2380.00
2023-05-12T08:00:21.941Z,2319.00
2023-05-12T08:01:21.951Z,2309.00
2023-05-12T08:02:22.000Z,2201.00
2023-05-12T08:03:22.404Z,2143.00
2023-05-12T08:04:21.964Z,2185.00
2023-05-12T08:05:22.121Z,2189.00
2023-05-12T08:06:21.962Z,2131.00
2023-05-12T08:07:22.034Z,2132.00
2023-05-12T08:08:21.985Z,2128.00
2023-05-12T08:09:21.986Z,2131.00
2023-05-12T08:10:22.042Z,1951.00
2023-05-12T08:11:22.055Z,1981.00
2023-05-12T08:12:22.297Z,2016.00
2023-05-12T08:13:22.146Z,2017.00
2023-05-12T08:14:22.092Z,2013.00
2023-05-12T08:15:22.522Z,2026.00
2023-05-12T08:16:22.152Z,2012.00
2023-05-12T08:17:22.125Z,1990.00
2023-05-12T08:18:22.951Z,1976.00
2023-05-12T08:19:22.182Z,1957.00
2023-05-12T08:20:22.273Z,1918.00
2023-05-12T08:21:22.256Z,1892.00
2023-05-12T08:22:22.290Z,1861.00
2023-05-12T08:23:22.331Z,1846.00
2023-05-12T08:24:22.360Z,1825.00
2023-05-12T08:25:22.445Z,1852.00
2023-05-12T08:26:22.444Z,1566.00
2023-05-12T08:27:22.418Z,1192.00
2023-05-12T08:28:22.448Z,695.00
2023-05-12T08:29:22.410Z,584.00
2023-05-12T08:30:22.597Z,611.00
2023-05-12T08:31:22.550Z,520.00
2023-05-12T08:32:22.665Z,522.00
2023-05-12T08:33:22.693Z,493.00
2023-05-12T08:34:22.590Z,489.00
2023-05-12T08:35:22.910Z,502.00
2023-05-12T08:36:22.778Z,489.00
2023-05-12T08:37:22.737Z,513.00
2023-05-12T08:38:22.939Z,550.00
2023-05-12T08:39:22.777Z,610.00
2023-05-12T08:40:22.867Z,664.00
2023-05-12T08:41:22.833Z,813.00
2023-05-12T08:42:22.841Z,972.00
2023-05-12T08:43:23.459Z,1122.00
2023-05-12T08:44:23.052Z,1168.00
2023-05-12T08:45:22.973Z,1202.00
2023-05-12T08:46:23.927Z,1238.00
2023-05-12T08:47:23.024Z,1319.00
2023-05-12T08:48:23.049Z,1484.00
2023-05-12T08:49:23.055Z,1576.00
2023-05-12T08:50:23.182Z,1605.00
2023-05-12T08:51:23.067Z,1557.00
2023-05-12T08:52:23.128Z,1671.00
2023-05-12T08:53:23.374Z,1715.00
2023-05-12T08:54:23.269Z,1731.00
2023-05-12T08:55:26.286Z,1767.00
2023-05-12T08:57:23.321Z,1770.00
2023-05-12T08:58:33.960Z,1742.00
2023-05-12T08:59:24.290Z,1769.00
2023-05-12T09:00:23.369Z,1768.00
2023-05-12T09:01:23.460Z,1781.00
2023-05-12T09:02:23.536Z,1744.00
2023-05-12T09:03:23.423Z,1848.00
2023-05-12T09:04:23.412Z,1914.00
2023-05-12T09:05:23.564Z,1785.00
2023-05-12T09:06:23.236Z,1922.00
2023-05-12T09:07:23.233Z,1953.00
2023-05-12T09:08:23.310Z,1953.00
2023-05-12T09:09:23.333Z,1967.00
2023-05-12T09:10:34.534Z,1971.00
2023-05-12T09:11:24.358Z,1971.00
2023-05-12T09:12:23.320Z,1795.00
2023-05-12T09:13:23.375Z,1472.00
2023-05-12T09:14:23.365Z,1346.00
2023-05-12T09:15:23.432Z,1279.00
2023-05-12T09:16:23.639Z,1194.00
2023-05-12T09:17:23.386Z,1109.00
2023-05-12T09:18:23.902Z,1156.00
2023-05-12T09:19:23.306Z,1090.00
2023-05-12T09:20:30.922Z,1079.00
2023-05-12T09:21:24.362Z,921.00
2023-05-12T09:22:23.271Z,864.00
2023-05-12T09:23:23.424Z,772.00
2023-05-12T09:24:23.377Z,869.00
2023-05-12T09:25:23.360Z,724.00
2023-05-12T09:26:23.261Z,633.00
2023-05-12T09:27:23.278Z,534.00
2023-05-12T09:28:23.266Z,478.00
2023-05-12T09:29:30.806Z,431.00
2023-05-12T09:30:24.257Z,400.00
2023-05-12T09:31:23.242Z,400.00
2023-05-12T09:32:23.197Z,400.00
2023-05-12T09:33:23.222Z,400.00
2023-05-12T09:34:23.204Z,400.00
2023-05-12T09:35:23.176Z,454.00
2023-05-12T09:36:23.175Z,510.00
2023-05-12T09:37:23.169Z,506.00
2023-05-12T09:38:23.146Z,533.00
2023-05-12T09:39:23.391Z,542.00
2023-05-12T09:40:23.137Z,565.00
2023-05-12T09:41:23.166Z,569.00
2023-05-12T09:42:23.177Z,559.00
2023-05-12T09:43:23.202Z,602.00
2023-05-12T09:44:23.257Z,530.00
2023-05-12T09:45:23.264Z,496.00
2023-05-12T09:46:23.302Z,506.00
2023-05-12T09:47:23.426Z,524.00
2023-05-12T09:48:24.064Z,527.00
2023-05-12T09:49:23.384Z,544.00
2023-05-12T09:50:23.433Z,525.00
2023-05-12T09:51:23.418Z,537.00
2023-05-12T09:52:23.441Z,541.00
2023-05-12T09:53:23.507Z,565.00
2023-05-12T09:54:23.895Z,558.00
2023-05-12T09:55:23.546Z,569.00
2023-05-12T09:56:23.652Z,562.00
2023-05-12T09:57:23.639Z,529.00
2023-05-12T09:58:23.658Z,500.00
2023-05-12T09:59:23.705Z,492.00
2023-05-12T10:00:38.537Z,500.00
2023-05-12T10:01:24.849Z,493.00
2023-05-12T10:02:23.961Z,503.00
2023-05-12T10:03:23.752Z,513.00
2023-05-12T10:04:23.747Z,514.00
2023-05-12T10:05:23.720Z,519.00
2023-05-12T10:06:23.744Z,533.00
2023-05-12T10:07:23.683Z,542.00
2023-05-12T10:08:23.715Z,541.00
2023-05-12T10:09:23.906Z,556.00
2023-05-12T10:10:23.688Z,559.00
2023-05-12T10:11:23.679Z,556.00
2023-05-12T10:12:23.704Z,568.00
2023-05-12T10:13:23.716Z,569.00
2023-05-12T10:14:23.877Z,566.00
2023-05-12T10:15:23.732Z,590.00
2023-05-12T10:16:23.836Z,574.00
2023-05-12T10:17:23.826Z,605.00
2023-05-12T10:18:23.852Z,618.00
2023-05-12T10:19:23.812Z,574.00
2023-05-12T10:20:23.824Z,561.00
2023-05-12T10:21:23.902Z,549.00
2023-05-12T10:22:23.854Z,546.00
2023-05-12T10:23:23.993Z,525.00
2023-05-12T10:24:24.456Z,500.00
2023-05-12T10:25:24.044Z,545.00
2023-05-12T10:26:23.961Z,636.00
2023-05-12T10:27:24.028Z,767.00
2023-05-12T10:28:24.041Z,842.00
2023-05-12T10:29:24.052Z,942.00
2023-05-12T10:30:24.289Z,1087.00
2023-05-12T10:31:24.143Z,1227.00
2023-05-12T10:32:24.163Z,1304.00
2023-05-12T10:33:24.198Z,1418.00
2023-05-12T10:34:24.423Z,1454.00
2023-05-12T10:35:24.263Z,1536.00
2023-05-12T10:36:24.343Z,1701.00
2023-05-12T10:37:24.409Z,1806.00
2023-05-12T10:38:24.372Z,1884.00
2023-05-12T10:39:24.392Z,1970.00
2023-05-12T10:40:24.413Z,2008.00
2023-05-12T10:41:24.435Z,2065.00
2023-05-12T10:42:24.407Z,2169.00
2023-05-12T10:43:24.388Z,2232.00
2023-05-12T10:44:24.384Z,2256.00
2023-05-12T10:45:24.422Z,2291.00
2023-05-12T10:46:24.560Z,2339.00
2023-05-12T10:47:24.589Z,2391.00
2023-05-12T10:48:24.655Z,2416.00
2023-05-12T10:49:24.717Z,2413.00
2023-05-12T10:50:24.751Z,2528.00
2023-05-12T10:51:24.846Z,2570.00
2023-05-12T10:52:24.861Z,2598.00
2023-05-12T10:53:26.196Z,2617.00
2023-05-12T10:54:25.403Z,2649.00
2023-05-12T10:55:25.151Z,2665.00
2023-05-12T10:56:25.506Z,2697.00
2023-05-12T10:57:25.039Z,2717.00
2023-05-12T10:58:25.215Z,2739.00
2023-05-12T10:59:25.268Z,2747.00
2023-05-12T11:00:25.570Z,2764.00
2023-05-12T11:01:25.277Z,2788.00
2023-05-12T11:02:25.973Z,2797.00
2023-05-12T11:03:25.521Z,2827.00
2023-05-12T11:04:25.045Z,2838.00
2023-05-12T11:05:25.143Z,2872.00
2023-05-12T11:06:25.578Z,2887.00
2023-05-12T11:07:24.993Z,2891.00
2023-05-12T11:08:25.091Z,2906.00
2023-05-12T11:09:25.132Z,2914.00
2023-05-12T11:10:24.901Z,2924.00
2023-05-12T11:11:25.125Z,2944.00
2023-05-12T11:12:24.849Z,2740.00
2023-05-12T11:13:24.803Z,2874.00
2023-05-12T11:14:25.419Z,2870.00
2023-05-12T11:15:25.407Z,2950.00
2023-05-12T11:16:24.757Z,2941.00
2023-05-12T11:17:24.791Z,2958.00
2023-05-12T11:18:24.750Z,2993.00
2023-05-12T11:19:24.913Z,2981.00
2023-05-12T11:20:24.734Z,2886.00
2023-05-12T11:21:24.782Z,2848.00
2023-05-12T11:22:24.788Z,2780.00
2023-05-12T11:23:24.863Z,2751.00
2023-05-12T11:24:24.914Z,2628.00
2023-05-12T11:25:25.402Z,2573.00
2023-05-12T11:26:24.952Z,2500.00
2023-05-12T11:27:25.003Z,2430.00
2023-05-12T11:28:25.043Z,2393.00
2023-05-12T11:29:25.073Z,2314.00
2023-05-12T11:30:25.160Z,2247.00
2023-05-12T11:31:25.190Z,2210.00
2023-05-12T11:32:25.256Z,2200.00
2023-05-12T11:33:25.255Z,2150.00
2023-05-12T11:34:25.349Z,2080.00
2023-05-12T11:35:25.403Z,2046.00
2023-05-12T11:36:25.437Z,2002.00
2023-05-12T11:37:25.495Z,1944.00
2023-05-12T11:38:25.529Z,1897.00
2023-05-12T11:39:25.587Z,1869.00
2023-05-12T11:40:25.724Z,1864.00
2023-05-12T11:41:25.736Z,1838.00
2023-05-12T11:42:25.999Z,1820.00
2023-05-12T11:43:25.849Z,1787.00
2023-05-12T11:44:25.966Z,1770.00
2023-05-12T11:45:26.016Z,1764.00
2023-05-12T11:46:26.086Z,1728.00
2023-05-12T11:47:26.218Z,1736.00
2023-05-12T11:48:26.144Z,1697.00
2023-05-12T11:49:26.215Z,1660.00
2023-05-12T11:50:26.348Z,1694.00
2023-05-12T11:51:26.303Z,1658.00
2023-05-12T11:52:26.357Z,1638.00
2023-05-12T11:53:27.707Z,1624.00
2023-05-12T11:54:26.476Z,1651.00
2023-05-12T11:55:26.664Z,1655.00
2023-05-12T11:56:26.585Z,1665.00
2023-05-12T11:57:26.715Z,1696.00
2023-05-12T11:58:26.822Z,1718.00
2023-05-12T11:59:26.773Z,1771.00
2023-05-12T12:00:26.815Z,1776.00
2023-05-12T12:01:26.883Z,1808.00
2023-05-12T12:02:27.015Z,1826.00
2023-05-12T12:03:27.054Z,1845.00
2023-05-12T12:04:27.457Z,1856.00
2023-05-12T12:05:27.048Z,1886.00
2023-05-12T12:06:27.070Z,1873.00
2023-05-12T12:07:27.147Z,1863.00
2023-05-12T12:08:27.156Z,1855.00
2023-05-12T12:09:27.420Z,1866.00
2023-05-12T12:10:27.271Z,1851.00
2023-05-12T12:11:27.279Z,1845.00
2023-05-12T12:12:27.319Z,1839.00
2023-05-12T12:13:27.360Z,1858.00
2023-05-12T12:14:27.477Z,1852.00
2023-05-12T12:15:27.469Z,1852.00
2023-05-12T12:16:27.634Z,1825.00
2023-05-12T12:17:27.553Z,1826.00
2023-05-12T12:18:27.577Z,1805.00
2023-05-12T12:19:27.609Z,1759.00